Time;durP1;ratioP1;P1;durP2;ratioP2;P2;SDS_P1;SDS_P2;PMS_P1;PMS_P2;Temp;Humidity;BMP_temperature;BMP_pressure;BME280_temperature;BME280_humidity;BME280_pressure;Samples;Min_cycle;Max_cycle;Signal;HPM_P1;HPM_P2
2021/10/28 00:12:13;;;;;;;20.55;12.40;;;9.30;99.90;;;;;;5032930;28;20072;-92
2021/10/28 00:14:42;;;;;;;19.70;11.75;;;9.30;99.90;;;;;;5050223;28;20242;-91
2021/10/28 00:17:15;;;;;;;19.95;12.20;;;9.20;99.90;;;;;;5038153;28;20021;-92
2021/10/28 00:19:41;;;;;;;19.92;10.88;;;9.20;99.90;;;;;;5037370;28;20040;-91
2021/10/28 00:22:09;;;;;;;22.02;12.15;;;9.20;99.90;;;;;;5037790;28;20033;-91
2021/10/28 00:24:34;;;;;;;16.70;11.65;;;9.20;99.90;;;;;;5036561;28;20033;-91
2021/10/28 00:27:00;;;;;;;20.98;12.48;;;9.10;99.90;;;;;;5051380;28;20029;-92
2021/10/28 00:29:26;;;;;;;20.83;12.68;;;9.20;99.90;;;;;;5043952;28;20468;-91
2021/10/28 00:31:52;;;;;;;21.08;12.63;;;9.10;99.90;;;;;;5038487;28;20439;-91
2021/10/28 00:34:18;;;;;;;21.38;12.38;;;9.00;99.90;;;;;;5034133;28;20040;-91
2021/10/28 00:36:46;;;;;;;23.48;12.07;;;9.10;99.90;;;;;;5032997;28;20029;-91
2021/10/28 00:39:12;;;;;;;18.42;11.75;;;9.00;99.90;;;;;;5047080;28;20029;-91
2021/10/28 00:41:38;;;;;;;17.55;11.07;;;9.00;99.90;;;;;;5047466;28;20022;-92
2021/10/28 00:44:07;;;;;;;21.60;13.75;;;9.00;99.90;;;;;;5054175;28;20025;-91
2021/10/28 00:46:35;;;;;;;22.95;13.10;;;9.00;99.90;;;;;;5054316;28;20028;-93
2021/10/28 00:49:03;;;;;;;20.13;12.70;;;9.00;99.90;;;;;;5040353;28;20055;-90
2021/10/28 00:51:29;;;;;;;18.65;11.70;;;9.00;99.90;;;;;;5041599;28;20029;-91
2021/10/28 00:53:57;;;;;;;19.70;12.60;;;9.00;99.90;;;;;;5019767;28;20553;-91
2021/10/28 00:56:25;;;;;;;19.27;12.45;;;9.00;99.90;;;;;;5043373;28;20032;-90
2021/10/28 00:58:51;;;;;;;18.48;11.75;;;9.00;99.90;;;;;;5037335;28;20021;-90
2021/10/28 01:01:17;;;;;;;26.67;12.55;;;9.00;99.90;;;;;;5036713;28;20095;-90
2021/10/28 01:03:44;;;;;;;20.85;12.77;;;8.90;99.90;;;;;;5036788;28;20044;-92
2021/10/28 01:06:10;;;;;;;19.50;11.80;;;8.90;99.90;;;;;;5037951;28;20154;-91
2021/10/28 01:08:38;;;;;;;20.17;12.48;;;8.90;99.90;;;;;;5053675;28;20033;-91
2021/10/28 01:11:08;;;;;;;23.02;12.57;;;8.90;99.90;;;;;;5054270;28;20024;-91
2021/10/28 01:13:34;;;;;;;15.43;11.65;;;8.90;99.90;;;;;;5050032;28;20033;-91
2021/10/28 01:16:01;;;;;;;20.30;12.18;;;8.90;99.90;;;;;;5051573;28;20386;-91
2021/10/28 01:18:28;;;;;;;19.63;12.57;;;8.90;99.90;;;;;;5024745;28;20485;-91
2021/10/28 01:20:54;;;;;;;18.77;12.13;;;8.90;99.90;;;;;;5034636;28;20029;-91
2021/10/28 01:23:23;;;;;;;18.55;13.07;;;8.80;99.90;;;;;;5033855;28;20118;-90
2021/10/28 01:25:55;;;;;;;18.90;12.27;;;8.80;99.90;;;;;;5036915;28;20032;-91
2021/10/28 01:28:22;;;;;;;19.48;11.90;;;8.80;99.90;;;;;;5040797;28;20035;-91
2021/10/28 01:30:53;;;;;;;18.80;11.90;;;8.70;99.90;;;;;;5039210;28;20474;-91
2021/10/28 01:33:20;;;;;;;20.52;12.52;;;8.70;99.90;;;;;;5038638;28;20087;-92
2021/10/28 01:35:45;;;;;;;21.73;12.93;;;8.70;99.90;;;;;;5042625;28;20025;-91
2021/10/28 01:38:13;;;;;;;25.45;13.18;;;8.70;99.90;;;;;;5049812;28;20029;-91
2021/10/28 01:40:39;;;;;;;21.15;12.52;;;8.70;99.90;;;;;;5035762;28;20026;-91
2021/10/28 01:43:05;;;;;;;24.42;13.45;;;8.70;99.90;;;;;;5033767;28;20076;-90
2021/10/28 01:45:32;;;;;;;24.20;12.52;;;8.70;99.90;;;;;;5033969;28;20021;-91
2021/10/28 01:47:58;;;;;;;21.10;12.68;;;8.70;99.90;;;;;;5049589;28;20491;-91
2021/10/28 01:50:24;;;;;;;18.58;11.95;;;8.60;99.90;;;;;;5039581;28;20029;-91
2021/10/28 01:52:50;;;;;;;21.00;12.00;;;8.70;99.90;;;;;;5040011;28;20163;-90
2021/10/28 01:55:16;;;;;;;21.15;12.48;;;8.60;99.90;;;;;;5038689;28;20078;-92
2021/10/28 01:57:42;;;;;;;19.40;11.90;;;8.60;99.90;;;;;;5039766;28;20029;-91
2021/10/28 02:00:13;;;;;;;20.40;13.32;;;8.60;99.90;;;;;;5035767;28;20044;-90
2021/10/28 02:02:41;;;;;;;23.10;13.02;;;8.70;99.90;;;;;;5041356;28;20048;-91
2021/10/28 02:05:09;;;;;;;21.67;13.50;;;8.60;99.90;;;;;;5046141;28;20039;-91
2021/10/28 02:07:35;;;;;;;20.50;14.00;;;8.60;99.90;;;;;;5050594;28;20025;-91
2021/10/28 02:10:00;;;;;;;25.02;12.77;;;8.70;99.90;;;;;;5072800;28;20035;-91
2021/10/28 02:12:26;;;;;;;18.45;12.25;;;8.60;99.90;;;;;;5057546;28;20040;-91
2021/10/28 02:14:51;;;;;;;19.13;12.02;;;8.60;99.90;;;;;;5037697;28;20020;-90
2021/10/28 02:17:17;;;;;;;21.10;12.60;;;8.60;99.90;;;;;;5044150;28;20368;-91
2021/10/28 02:19:42;;;;;;;19.77;12.30;;;8.60;99.90;;;;;;5042851;28;20099;-91
2021/10/28 02:22:08;;;;;;;19.20;12.85;;;8.60;99.90;;;;;;5040281;28;20046;-91
2021/10/28 02:24:34;;;;;;;15.15;10.77;;;8.60;99.90;;;;;;5038742;28;20035;-89
2021/10/28 02:27:00;;;;;;;21.20;13.05;;;8.60;99.90;;;;;;5034380;28;20021;-90
2021/10/28 02:29:26;;;;;;;19.10;12.43;;;8.50;99.90;;;;;;5044142;28;20119;-90
2021/10/28 02:31:52;;;;;;;18.48;12.07;;;8.50;99.90;;;;;;5040374;28;20021;-92
2021/10/28 02:34:17;;;;;;;17.30;11.73;;;8.50;99.90;;;;;;5046475;28;20021;-91
2021/10/28 02:36:43;;;;;;;19.55;13.18;;;8.50;99.90;;;;;;5038147;28;20028;-91
2021/10/28 02:39:09;;;;;;;23.50;12.90;;;8.50;99.90;;;;;;5048369;28;20025;-91
2021/10/28 02:41:36;;;;;;;18.42;12.23;;;8.50;99.90;;;;;;5036367;28;20044;-91
2021/10/28 02:44:03;;;;;;;22.33;12.55;;;8.50;99.90;;;;;;5036689;28;20088;-92
2021/10/28 02:46:29;;;;;;;17.85;11.40;;;8.50;99.90;;;;;;5039172;28;20022;-91
2021/10/28 02:48:54;;;;;;;25.10;13.05;;;8.50;99.90;;;;;;5037552;28;20017;-91
2021/10/28 02:51:20;;;;;;;22.90;11.48;;;8.50;99.90;;;;;;5039248;28;20036;-92
2021/10/28 02:53:46;;;;;;;18.85;11.60;;;8.50;99.90;;;;;;5048745;28;20094;-91
2021/10/28 02:56:12;;;;;;;19.48;12.60;;;8.50;99.90;;;;;;5051193;28;20048;-92
2021/10/28 02:58:38;;;;;;;20.88;12.52;;;8.50;99.90;;;;;;5033314;28;20459;-91
2021/10/28 03:01:04;;;;;;;17.50;12.80;;;8.50;99.90;;;;;;5054709;28;20120;-89
2021/10/28 03:03:30;;;;;;;16.60;11.73;;;8.50;99.90;;;;;;5055224;28;20033;-91
2021/10/28 03:05:55;;;;;;;16.98;12.10;;;8.50;99.90;;;;;;5038131;28;20434;-91
2021/10/28 03:08:21;;;;;;;19.98;12.95;;;8.50;99.90;;;;;;5038125;28;20120;-90
2021/10/28 03:10:47;;;;;;;17.75;13.20;;;8.40;99.90;;;;;;5038315;28;20025;-90
2021/10/28 03:13:17;;;;;;;22.77;12.98;;;8.40;99.90;;;;;;5038500;28;20509;-89
2021/10/28 03:15:43;;;;;;;17.00;12.50;;;8.40;99.90;;;;;;5036880;28;20026;-91
2021/10/28 03:19:16;;;;;;;19.92;12.55;;;8.40;99.90;;;;;;5044449;28;20039;-90
2021/10/28 03:26:30;;;;;;;20.85;12.38;;;8.30;99.90;;;;;;5054928;28;20393;-89
2021/10/28 03:28:55;;;;;;;17.63;13.45;;;8.30;99.90;;;;;;5047773;28;20024;-90
2021/10/28 03:31:21;;;;;;;22.35;13.75;;;8.30;99.90;;;;;;5040024;28;20082;-88
2021/10/28 03:33:49;;;;;;;22.25;13.70;;;8.30;99.90;;;;;;5037938;28;20071;-88
2021/10/28 03:36:23;;;;;;;21.90;15.00;;;8.30;99.90;;;;;;5035400;28;20025;-89
2021/10/28 03:39:04;;;;;;;24.17;14.80;;;8.30;99.90;;;;;;5040144;28;20051;-89
2021/10/28 03:41:56;;;;;;;21.80;14.60;;;8.30;99.90;;;;;;5036144;28;20025;-89
2021/10/28 03:45:22;;;;;;;24.67;15.10;;;8.30;99.90;;;;;;5028599;28;20034;-89
2021/10/28 03:47:38;;;;;;;23.15;14.38;;;8.20;99.90;;;;;;5045896;28;20059;-88
2021/10/28 03:50:28;;;;;;;22.05;14.93;;;8.20;99.90;;;;;;5048621;28;20072;-88
2021/10/28 03:53:45;;;;;;;23.27;15.23;;;8.20;99.90;;;;;;5036779;28;20029;-89
2021/10/28 04:06:42;;;;;;;26.00;16.95;;;8.10;99.90;;;;;;5055555;28;20032;-89
2021/10/28 04:18:10;;;;;;;30.48;18.10;;;7.90;99.90;;;;;;5041752;28;20431;-89
2021/10/28 04:20:20;;;;;;;31.52;19.92;;;7.90;99.90;;;;;;5038164;28;20095;-88
2021/10/28 04:30:58;;;;;;;37.40;19.20;;;7.80;99.90;;;;;;5053631;28;20090;-90
2021/10/28 04:33:23;;;;;;;33.33;18.45;;;7.80;99.90;;;;;;5041840;28;20037;-89
2021/10/28 04:35:49;;;;;;;34.90;19.70;;;7.80;99.90;;;;;;5040874;28;20443;-88
2021/10/28 04:38:14;;;;;;;30.75;19.73;;;7.80;99.90;;;;;;5033624;28;20033;-90
2021/10/28 04:40:41;;;;;;;33.28;18.33;;;7.80;99.90;;;;;;5041881;28;20044;-89
2021/10/28 04:43:06;;;;;;;33.53;18.98;;;7.70;99.90;;;;;;5052767;28;20519;-89
2021/10/28 04:45:32;;;;;;;36.22;19.83;;;7.70;99.90;;;;;;5054706;28;20033;-90
2021/10/28 04:47:57;;;;;;;33.25;18.70;;;7.80;99.90;;;;;;5032251;28;20031;-89
2021/10/28 04:50:23;;;;;;;31.38;18.30;;;7.80;99.90;;;;;;5031694;28;20026;-89
2021/10/28 04:52:48;;;;;;;30.85;18.65;;;7.70;99.90;;;;;;5052192;28;20477;-89
2021/10/28 04:55:14;;;;;;;30.27;17.95;;;7.80;99.90;;;;;;5035560;28;20032;-89
2021/10/28 04:57:39;;;;;;;31.00;18.60;;;7.70;99.90;;;;;;5036660;28;20037;-90
2021/10/28 05:00:06;;;;;;;31.95;19.10;;;7.80;99.90;;;;;;5035919;28;20033;-89
2021/10/28 05:02:32;;;;;;;34.15;19.00;;;7.80;99.90;;;;;;5039683;28;20045;-89
2021/10/28 05:04:58;;;;;;;33.95;19.40;;;7.80;99.90;;;;;;5040583;28;20021;-90
2021/10/28 05:07:23;;;;;;;27.55;17.15;;;7.80;99.90;;;;;;5041351;28;20070;-89
2021/10/28 05:09:49;;;;;;;28.42;17.30;;;7.80;99.90;;;;;;5054095;28;20025;-89
2021/10/28 05:12:15;;;;;;;29.60;17.48;;;7.70;99.90;;;;;;5038534;28;20029;-88
2021/10/28 05:14:40;;;;;;;29.40;18.05;;;7.70;99.90;;;;;;5036722;28;20040;-90
2021/10/28 05:17:06;;;;;;;28.63;16.67;;;7.70;99.90;;;;;;5059462;28;20082;-89
2021/10/28 05:19:37;;;;;;;25.92;16.20;;;7.70;99.90;;;;;;5038182;28;20028;-90
2021/10/28 05:22:04;;;;;;;29.95;18.58;;;7.60;99.90;;;;;;5042285;28;20028;-89
2021/10/28 05:24:29;;;;;;;31.92;16.95;;;7.60;99.90;;;;;;5040929;28;20021;-90
2021/10/28 05:26:55;;;;;;;30.88;17.13;;;7.60;99.90;;;;;;5040957;28;20021;-89
2021/10/28 05:29:20;;;;;;;29.75;17.33;;;7.60;99.90;;;;;;5038475;28;20021;-88
2021/10/28 05:31:46;;;;;;;31.98;16.52;;;7.60;99.90;;;;;;5047873;28;20036;-89
2021/10/28 05:34:12;;;;;;;30.60;17.27;;;7.60;99.90;;;;;;5039832;28;20108;-89
2021/10/28 05:36:37;;;;;;;30.23;17.02;;;7.50;99.90;;;;;;5045824;28;20045;-88
2021/10/28 05:39:03;;;;;;;28.90;16.85;;;7.60;99.90;;;;;;5057072;28;20069;-90
2021/10/28 05:41:28;;;;;;;28.48;17.20;;;7.50;99.90;;;;;;5049024;28;20053;-88
2021/10/28 05:43:54;;;;;;;28.50;15.98;;;7.50;99.90;;;;;;5039689;28;20028;-89
2021/10/28 05:46:19;;;;;;;28.10;16.30;;;7.50;99.90;;;;;;5039295;28;20028;-89
2021/10/28 05:48:45;;;;;;;28.30;16.45;;;7.50;99.90;;;;;;5033045;28;20021;-89
2021/10/28 05:51:11;;;;;;;28.25;16.95;;;7.50;99.90;;;;;;5032066;28;20056;-90
2021/10/28 05:53:38;;;;;;;29.60;17.00;;;7.50;99.90;;;;;;5032860;28;20099;-90
2021/10/28 05:56:04;;;;;;;31.48;17.73;;;7.50;99.90;;;;;;5025002;28;20025;-90
2021/10/28 05:58:30;;;;;;;33.50;16.73;;;7.40;99.90;;;;;;5038806;28;20447;-91
2021/10/28 06:00:59;;;;;;;28.30;16.40;;;7.40;99.90;;;;;;5028026;28;20073;-88
2021/10/28 06:03:25;;;;;;;29.27;17.40;;;7.40;99.90;;;;;;5037926;28;20522;-88
2021/10/28 06:05:50;;;;;;;33.53;17.30;;;7.40;99.90;;;;;;5036940;28;20116;-88
2021/10/28 06:08:16;;;;;;;27.52;17.20;;;7.40;99.90;;;;;;5036471;28;20030;-87
2021/10/28 06:10:42;;;;;;;29.13;16.60;;;7.40;99.90;;;;;;5048680;28;20102;-87
2021/10/28 06:13:08;;;;;;;28.52;16.77;;;7.30;99.90;;;;;;5022007;28;20037;-89
2021/10/28 06:15:35;;;;;;;32.80;17.13;;;7.30;99.90;;;;;;5038565;28;20114;-87
2021/10/28 06:18:14;;;;;;;32.92;16.52;;;7.30;99.90;;;;;;5039381;28;20025;-88
2021/10/28 06:20:40;;;;;;;32.45;17.52;;;7.30;99.90;;;;;;5037481;28;20024;-88
2021/10/28 06:23:05;;;;;;;31.08;16.50;;;7.20;99.90;;;;;;5038146;28;20393;-87
2021/10/28 06:25:31;;;;;;;27.42;16.92;;;7.20;99.90;;;;;;5037908;28;20028;-88
2021/10/28 06:27:56;;;;;;;34.50;17.30;;;7.20;99.90;;;;;;5034113;28;20505;-89
2021/10/28 06:30:22;;;;;;;32.03;16.75;;;7.20;99.90;;;;;;5046719;28;20423;-90
2021/10/28 06:32:55;;;;;;;30.13;16.70;;;7.20;99.90;;;;;;5056550;28;20100;-89
2021/10/28 06:35:21;;;;;;;28.50;16.88;;;7.10;99.90;;;;;;5047139;28;20025;-89
2021/10/28 06:37:48;;;;;;;32.60;18.23;;;7.10;99.90;;;;;;5039223;28;20056;-89
2021/10/28 06:40:25;;;;;;;34.30;17.10;;;7.10;99.90;;;;;;5039031;28;20120;-90
2021/10/28 06:42:51;;;;;;;36.05;18.17;;;7.10;99.90;;;;;;5035805;28;20029;-90
2021/10/28 06:45:18;;;;;;;29.10;16.80;;;7.10;99.90;;;;;;5056277;28;20175;-88
2021/10/28 06:47:45;;;;;;;32.20;16.55;;;7.10;99.90;;;;;;5055788;28;20036;-90
2021/10/28 06:50:17;;;;;;;30.33;16.67;;;7.10;99.90;;;;;;5053268;28;20047;-89
2021/10/28 06:52:54;;;;;;;37.65;18.65;;;7.10;99.90;;;;;;5038537;28;20029;-89
2021/10/28 07:02:15;;;;;;;36.83;18.02;;;7.10;99.90;;;;;;5055899;28;20096;-89
2021/10/28 07:03:30;;;;;;;30.58;17.17;;;7.20;99.90;;;;;;5054951;28;20059;-88
2021/10/28 07:06:02;;;;;;;35.17;17.33;;;7.20;99.90;;;;;;5054293;28;20025;-90
2021/10/28 07:08:28;;;;;;;30.73;17.23;;;7.20;99.90;;;;;;5055235;28;20043;-89
2021/10/28 07:10:56;;;;;;;33.72;17.75;;;7.20;99.90;;;;;;5039192;28;20029;-89
2021/10/28 07:13:26;;;;;;;33.75;16.20;;;7.20;99.90;;;;;;5033170;28;20033;-89
2021/10/28 07:15:56;;;;;;;35.25;17.50;;;7.30;99.90;;;;;;5037992;28;20025;-89
2021/10/28 07:31:59;;;;;;;34.20;17.90;;;7.50;99.90;;;;;;5057362;28;20029;-88
2021/10/28 07:56:20;;;;;;;29.10;16.15;;;8.20;99.90;;;;;;5053247;28;20060;-88
2021/10/28 07:59:16;;;;;;;29.48;16.05;;;8.30;99.90;;;;;;5053232;28;20065;-88
2021/10/28 08:15:42;;;;;;;27.15;15.52;;;8.90;99.90;;;;;;5052777;28;20039;-88
2021/10/28 08:21:04;;;;;;;34.67;16.98;;;9.10;99.90;;;;;;5065039;28;20067;-88
2021/10/28 08:23:38;;;;;;;29.20;16.08;;;9.20;99.90;;;;;;5036218;28;20036;-87
2021/10/28 08:28:54;;;;;;;26.50;16.13;;;9.40;99.90;;;;;;5055564;28;20040;-89
2021/10/28 08:31:21;;;;;;;29.15;16.08;;;9.50;99.90;;;;;;5036023;28;20033;-88
2021/10/28 08:33:49;;;;;;;28.85;14.65;;;9.60;99.90;;;;;;5036042;28;20041;-88
2021/10/28 08:36:23;;;;;;;24.27;13.93;;;9.70;99.90;;;;;;5026958;28;20405;-88
2021/10/28 08:38:48;;;;;;;24.75;14.90;;;9.80;99.90;;;;;;5042030;28;20025;-88
2021/10/28 08:41:17;;;;;;;28.25;15.38;;;9.90;99.90;;;;;;5044295;28;20443;-89
2021/10/28 08:43:44;;;;;;;23.60;13.55;;;10.00;99.90;;;;;;5041964;28;20025;-89
2021/10/28 08:46:11;;;;;;;24.73;14.15;;;10.10;99.90;;;;;;5043546;28;20028;-89
2021/10/28 08:48:40;;;;;;;22.58;14.05;;;10.20;99.90;;;;;;5043604;28;20052;-88
2021/10/28 08:51:11;;;;;;;23.90;14.43;;;10.30;99.90;;;;;;5043251;28;20025;-89
2021/10/28 08:56:50;;;;;;;22.50;13.00;;;10.40;99.90;;;;;;5057195;28;20035;-89
2021/10/28 08:59:36;;;;;;;19.73;12.48;;;10.50;99.90;;;;;;5037359;28;20032;-89
2021/10/28 09:23:51;;;;;;;17.70;12.25;;;11.20;99.90;;;;;;5048769;28;20055;-89
2021/10/28 09:25:22;;;;;;;21.60;13.18;;;11.40;99.90;;;;;;5061040;28;20036;-89
2021/10/28 09:28:16;;;;;;;18.45;11.65;;;11.50;99.90;;;;;;5043174;28;20094;-89
2021/10/28 09:30:50;;;;;;;19.05;12.00;;;11.60;99.90;;;;;;5055615;28;20100;-88
2021/10/28 09:33:23;;;;;;;19.52;11.60;;;11.80;99.90;;;;;;5041247;28;20122;-89
2021/10/28 09:36:12;;;;;;;18.00;11.52;;;11.90;99.90;;;;;;5043727;28;20033;-89
2021/10/28 09:44:46;;;;;;;16.95;11.00;;;12.20;99.90;;;;;;5061408;28;20076;-89
2021/10/28 09:47:41;;;;;;;18.05;10.77;;;12.30;99.90;;;;;;5035874;28;20116;-90
2021/10/28 09:50:13;;;;;;;17.45;10.52;;;12.40;99.90;;;;;;5044916;28;20022;-89
2021/10/28 09:52:52;;;;;;;18.27;11.32;;;12.50;99.90;;;;;;5039840;28;20063;-89
2021/10/28 09:58:23;;;;;;;15.93;10.93;;;12.70;99.90;;;;;;5061832;28;20050;-89
2021/10/28 10:00:49;;;;;;;14.60;10.85;;;12.80;99.90;;;;;;5040630;28;20048;-90
2021/10/28 10:03:23;;;;;;;19.10;11.50;;;12.80;99.90;;;;;;5039891;28;20112;-89
2021/10/28 10:05:55;;;;;;;18.75;11.48;;;12.90;99.90;;;;;;5029871;28;20071;-87
2021/10/28 10:08:22;;;;;;;19.63;11.00;;;13.00;99.90;;;;;;5057664;28;20114;-86
2021/10/28 10:10:48;;;;;;;13.98;9.57;;;13.00;99.90;;;;;;5038948;28;20040;-89
2021/10/28 10:13:14;;;;;;;16.30;11.32;;;13.10;99.90;;;;;;5040480;28;20032;-89
2021/10/28 10:15:39;;;;;;;13.98;9.32;;;13.20;99.90;;;;;;5034410;28;20033;-90
2021/10/28 10:18:07;;;;;;;13.80;10.30;;;13.20;99.90;;;;;;5038337;28;20063;-88
2021/10/28 10:21:05;;;;;;;14.52;10.60;;;13.30;99.90;;;;;;5049247;28;20032;-90
2021/10/28 11:03:09;;;;;;;14.52;10.48;;;13.70;99.90;;;;;;5056855;28;20048;-90
2021/10/28 11:04:05;;;;;;;;;;;14.30;99.90;;;;;;5048581;28;20048;-90
2021/10/28 11:26:24;;;;;;;13.55;8.88;;;15.00;99.90;;;;;;5056249;28;20404;-89
2021/10/28 11:29:10;;;;;;;11.95;8.40;;;15.10;99.90;;;;;;5055591;28;20033;-89
2021/10/28 12:01:37;;;;;;;11.55;7.55;;;15.30;99.90;;;;;;5049277;28;20036;-90
2021/10/28 12:14:59;;;;;;;11.13;7.93;;;16.00;97.00;;;;;;5054758;28;20060;-91
2021/10/28 12:17:30;;;;;;;12.13;8.32;;;16.00;96.80;;;;;;5053724;28;20422;-90
2021/10/28 12:48:27;;;;;;;12.90;7.70;;;16.50;95.70;;;;;;5053748;28;20377;-92
2021/10/28 13:27:50;;;;;;;13.40;8.02;;;16.70;94.30;;;;;;5042346;28;20033;-91
2021/10/28 13:49:47;;;;;;;11.85;5.78;;;17.20;93.80;;;;;;5057258;28;20099;-91
2021/10/28 13:52:19;;;;;;;9.15;5.72;;;17.30;93.70;;;;;;5055196;28;20043;-90
2021/10/28 14:19:41;;;;;;;7.35;3.58;;;17.60;91.90;;;;;;5056875;28;20025;-91
2021/10/28 14:28:04;;;;;;;8.10;4.30;;;17.50;91.40;;;;;;5054569;28;20469;-92
2021/10/28 14:38:28;;;;;;;6.93;3.72;;;17.50;91.10;;;;;;5056751;28;20108;-91
2021/10/28 15:27:46;;;;;;;6.97;4.32;;;16.50;92.00;;;;;;5024113;28;20113;-91
2021/10/28 15:30:18;;;;;;;7.53;4.43;;;16.40;92.10;;;;;;5039261;28;20035;-92
2021/10/28 15:35:40;;;;;;;6.65;3.97;;;16.20;92.40;;;;;;5040305;28;20095;-92
2021/10/28 15:40:54;;;;;;;6.80;4.03;;;16.10;92.80;;;;;;5048707;28;20461;-89
2021/10/28 15:51:57;;;;;;;7.70;4.28;;;15.60;93.50;;;;;;5055744;28;20029;-92
2021/10/28 15:54:31;;;;;;;6.88;4.05;;;15.50;93.80;;;;;;5053658;28;20036;-90
2021/10/28 15:59:43;;;;;;;7.55;4.30;;;15.30;94.20;;;;;;5061302;28;20029;-90
2021/10/28 16:24:06;;;;;;;8.30;5.55;;;14.40;96.20;;;;;;5032954;28;20099;-91
2021/10/28 16:26:33;;;;;;;7.90;5.25;;;14.30;96.40;;;;;;5034393;28;20052;-91
2021/10/28 16:29:02;;;;;;;9.85;5.35;;;14.20;96.60;;;;;;5051587;28;20025;-90
2021/10/28 16:31:28;;;;;;;6.90;4.43;;;14.10;96.80;;;;;;5028071;28;20033;-91
2021/10/28 16:33:53;;;;;;;10.45;5.10;;;14.00;97.10;;;;;;5031859;28;20037;-90
2021/10/28 16:36:24;;;;;;;10.07;5.72;;;13.90;97.30;;;;;;5031715;28;20466;-91
2021/10/28 16:38:50;;;;;;;8.77;5.72;;;13.90;97.50;;;;;;5037175;28;20021;-91
2021/10/28 16:41:16;;;;;;;9.88;5.70;;;13.80;97.80;;;;;;5041581;28;20026;-91
2021/10/28 16:43:41;;;;;;;8.18;4.85;;;13.70;97.90;;;;;;5034341;28;20516;-91
2021/10/28 16:46:08;;;;;;;7.95;5.43;;;13.60;98.10;;;;;;5033760;28;20064;-92
2021/10/28 16:48:35;;;;;;;7.80;5.28;;;13.60;98.30;;;;;;5034394;28;20025;-91
2021/10/28 16:51:01;;;;;;;8.68;4.70;;;13.50;98.50;;;;;;5034093;28;20030;-91
2021/10/28 16:53:26;;;;;;;7.93;4.53;;;13.50;98.60;;;;;;5033478;28;20044;-91
2021/10/28 16:55:52;;;;;;;11.80;6.05;;;13.40;98.70;;;;;;5036047;28;20028;-91
2021/10/28 16:58:18;;;;;;;8.48;4.70;;;13.40;98.90;;;;;;5038237;28;20025;-90
2021/10/28 17:00:46;;;;;;;7.35;4.28;;;13.40;99.00;;;;;;5041334;28;20525;-91
2021/10/28 17:03:18;;;;;;;7.40;5.00;;;13.30;99.10;;;;;;5052762;28;20029;-93
2021/10/28 17:05:45;;;;;;;7.93;4.53;;;13.20;99.30;;;;;;5054176;28;20017;-93
2021/10/28 17:08:10;;;;;;;7.68;4.60;;;13.20;99.50;;;;;;5041061;28;20025;-92
2021/10/28 17:10:36;;;;;;;9.48;4.57;;;13.10;99.60;;;;;;5040731;28;20035;-92
2021/10/28 17:13:02;;;;;;;8.15;5.00;;;13.10;99.70;;;;;;5041348;28;20078;-91
2021/10/28 17:15:27;;;;;;;8.60;4.82;;;13.10;99.80;;;;;;5057805;28;20021;-91
2021/10/28 17:17:53;;;;;;;7.32;4.40;;;13.00;99.80;;;;;;5044278;28;20021;-92
2021/10/28 17:20:19;;;;;;;9.40;4.65;;;13.00;99.90;;;;;;5058007;28;20094;-92
2021/10/28 17:22:45;;;;;;;7.68;4.63;;;12.90;99.90;;;;;;5039432;28;20033;-92
2021/10/28 17:25:18;;;;;;;9.32;4.32;;;12.90;99.90;;;;;;5039629;28;20457;-91
2021/10/28 17:27:48;;;;;;;5.40;4.05;;;12.80;99.90;;;;;;5039154;28;20021;-92
2021/10/28 17:30:15;;;;;;;6.10;3.95;;;12.80;99.90;;;;;;5037645;28;20088;-91
2021/10/28 17:32:43;;;;;;;7.45;4.25;;;12.70;99.90;;;;;;5042422;28;20404;-90
2021/10/28 17:35:10;;;;;;;5.70;3.97;;;12.70;99.90;;;;;;5039904;28;20043;-92
2021/10/28 17:37:38;;;;;;;9.30;5.07;;;12.70;99.90;;;;;;5052523;28;20032;-93
2021/10/28 17:40:05;;;;;;;8.27;4.90;;;12.70;99.90;;;;;;5041496;28;20083;-92
2021/10/28 17:42:31;;;;;;;7.45;4.30;;;12.70;99.90;;;;;;5041338;28;20028;-93
2021/10/28 17:44:57;;;;;;;9.10;4.40;;;12.60;99.90;;;;;;5070705;28;20392;-91
2021/10/28 17:47:28;;;;;;;6.40;4.15;;;12.60;99.90;;;;;;5064489;28;20415;-92
2021/10/28 17:49:55;;;;;;;7.25;4.00;;;12.60;99.90;;;;;;5065166;28;20110;-92
2021/10/28 17:52:21;;;;;;;6.32;3.97;;;12.50;99.90;;;;;;5050193;28;20025;-91
2021/10/28 17:54:46;;;;;;;6.82;3.90;;;12.40;99.90;;;;;;5051893;28;20507;-92
2021/10/28 17:57:14;;;;;;;7.75;4.38;;;12.40;99.90;;;;;;5048004;28;20044;-92
2021/10/28 17:59:41;;;;;;;7.88;4.38;;;12.40;99.90;;;;;;5039751;28;20025;-91
2021/10/28 18:02:07;;;;;;;7.00;4.00;;;12.30;99.90;;;;;;5050811;28;20128;-91
2021/10/28 18:04:33;;;;;;;7.10;4.55;;;12.30;99.90;;;;;;5041365;28;20052;-91
2021/10/28 18:06:59;;;;;;;11.85;4.85;;;12.20;99.90;;;;;;5052860;28;20052;-91
2021/10/28 18:09:26;;;;;;;10.68;4.93;;;12.20;99.90;;;;;;5056264;28;20025;-90
2021/10/28 18:11:53;;;;;;;8.82;5.43;;;12.10;99.90;;;;;;5047081;28;20044;-90
2021/10/28 18:14:18;;;;;;;8.73;5.68;;;12.10;99.90;;;;;;5047616;28;20116;-91
2021/10/28 18:16:44;;;;;;;10.05;5.65;;;12.10;99.90;;;;;;5040700;28;20496;-90
2021/10/28 18:19:10;;;;;;;7.25;5.10;;;12.10;99.90;;;;;;5037098;28;20025;-91
2021/10/28 18:21:38;;;;;;;10.15;5.57;;;12.10;99.90;;;;;;5037683;28;20024;-91
2021/10/28 18:24:05;;;;;;;7.82;5.00;;;12.10;99.90;;;;;;5037396;28;20062;-91
2021/10/28 18:26:31;;;;;;;10.07;5.40;;;12.10;99.90;;;;;;5034742;28;20021;-91
2021/10/28 18:28:57;;;;;;;7.50;5.30;;;12.10;99.90;;;;;;5042501;28;20067;-90
2021/10/28 18:31:25;;;;;;;8.23;5.85;;;12.10;99.90;;;;;;5048215;28;20032;-91
2021/10/28 18:33:51;;;;;;;7.65;5.05;;;12.10;99.90;;;;;;5038698;28;20120;-90
2021/10/28 18:36:17;;;;;;;7.43;5.13;;;12.10;99.90;;;;;;5036736;28;20199;-90
2021/10/28 18:38:47;;;;;;;8.75;5.95;;;12.00;99.90;;;;;;5048264;28;20065;-91
2021/10/28 18:41:18;;;;;;;10.90;5.35;;;12.00;99.90;;;;;;5053310;28;20024;-90
2021/10/28 18:43:44;;;;;;;10.07;6.53;;;11.90;99.90;;;;;;5040450;28;20072;-90
2021/10/28 18:46:11;;;;;;;8.82;5.70;;;11.90;99.90;;;;;;5046780;28;20530;-90
2021/10/28 18:48:36;;;;;;;8.35;5.88;;;11.80;99.90;;;;;;5034452;28;20080;-90
2021/10/28 18:51:02;;;;;;;8.93;6.35;;;11.70;99.90;;;;;;5035513;28;20063;-90
2021/10/28 18:53:28;;;;;;;10.73;6.63;;;11.70;99.90;;;;;;5045474;28;20060;-90
2021/10/28 18:55:57;;;;;;;9.30;6.63;;;11.70;99.90;;;;;;5036665;28;20116;-90
2021/10/28 18:58:23;;;;;;;10.52;6.63;;;11.60;99.90;;;;;;5034965;28;20409;-91
2021/10/28 19:00:49;;;;;;;11.55;6.50;;;11.60;99.90;;;;;;5034991;28;20025;-91
2021/10/28 19:03:16;;;;;;;9.32;6.85;;;11.60;99.90;;;;;;5027002;28;20090;-90
2021/10/28 19:05:42;;;;;;;10.07;6.85;;;11.50;99.90;;;;;;5036601;28;20112;-90
2021/10/28 19:08:08;;;;;;;9.63;6.95;;;11.50;99.90;;;;;;5036506;28;20021;-90
2021/10/28 19:10:34;;;;;;;10.00;7.50;;;11.40;99.90;;;;;;5036487;28;20025;-90
2021/10/28 19:12:59;;;;;;;11.13;7.70;;;11.40;99.90;;;;;;5035999;28;20072;-91
2021/10/28 19:15:25;;;;;;;10.80;6.95;;;11.40;99.90;;;;;;5035589;28;20021;-89
2021/10/28 19:17:52;;;;;;;12.15;7.35;;;11.30;99.90;;;;;;5032830;28;20389;-90
2021/10/28 19:20:18;;;;;;;12.77;7.53;;;11.30;99.90;;;;;;5035280;28;20052;-90
2021/10/28 19:22:45;;;;;;;10.40;7.10;;;11.30;99.90;;;;;;5035492;28;20033;-90
2021/10/28 19:25:10;;;;;;;10.50;7.47;;;11.30;99.90;;;;;;5036318;28;20017;-90
2021/10/28 19:27:37;;;;;;;11.85;7.47;;;11.30;99.90;;;;;;5031219;28;20035;-90
2021/10/28 19:30:25;;;;;;;13.50;7.53;;;11.20;99.90;;;;;;5031044;28;20036;-90
2021/10/28 19:32:55;;;;;;;10.23;7.28;;;11.20;99.90;;;;;;5049230;28;20443;-90
2021/10/28 19:35:23;;;;;;;10.48;6.72;;;11.30;99.90;;;;;;5044100;28;20029;-90
2021/10/28 19:37:55;;;;;;;10.43;7.10;;;11.20;99.90;;;;;;5035092;28;20086;-90
2021/10/28 19:48:30;;;;;;;9.57;6.85;;;11.20;99.90;;;;;;5050497;28;20041;-91
2021/10/28 19:50:56;;;;;;;10.45;6.70;;;11.20;99.90;;;;;;5050241;28;20037;-89
2021/10/28 19:53:23;;;;;;;9.20;6.82;;;11.20;99.90;;;;;;5052678;28;20047;-90
2021/10/28 19:55:50;;;;;;;10.65;7.57;;;11.20;99.90;;;;;;5031434;28;20028;-90
2021/10/28 19:58:23;;;;;;;12.18;7.65;;;11.10;99.90;;;;;;5049522;28;20025;-89
2021/10/28 20:00:56;;;;;;;10.88;7.03;;;11.10;99.90;;;;;;5050778;28;20119;-89
2021/10/28 20:03:42;;;;;;;12.55;7.72;;;11.10;99.90;;;;;;5035244;28;20408;-88
2021/10/28 20:06:26;;;;;;;10.77;6.90;;;11.10;99.90;;;;;;5052547;28;20470;-90
2021/10/28 20:22:17;;;;;;;9.85;7.57;;;11.00;99.90;;;;;;5046680;28;20043;-88
2021/10/28 20:24:43;;;;;;;13.35;7.82;;;10.90;99.90;;;;;;5028674;28;20026;-89
2021/10/28 20:27:09;;;;;;;11.82;7.53;;;10.90;99.90;;;;;;5031660;28;20068;-89
2021/10/28 20:29:44;;;;;;;12.90;7.65;;;10.90;99.90;;;;;;5034749;28;20024;-90
2021/10/28 20:32:09;;;;;;;9.57;7.25;;;10.80;99.90;;;;;;5045310;28;20555;-89